sensor_id;sensor_type;location;lat;lon;timestamp;pressure;altitude;pressure_sealevel;temperature;humidity
59877;BME280;45749;51.140;17.184;2023-02-16T00:01:27;100987.28;;;-0.10;86.59
59877;BME280;45749;51.140;17.184;2023-02-16T00:03:54;100976.09;;;-0.14;86.80
59877;BME280;45749;51.140;17.184;2023-02-16T00:06:20;100981.28;;;-0.14;86.93
59877;BME280;45749;51.140;17.184;2023-02-16T00:08:46;100974.41;;;-0.15;86.81
59877;BME280;45749;51.140;17.184;2023-02-16T00:11:12;100971.84;;;-0.18;86.51
59877;BME280;45749;51.140;17.184;2023-02-16T00:13:58;100974.53;;;-0.22;86.82
59877;BME280;45749;51.140;17.184;2023-02-16T00:16:23;100973.69;;;-0.25;87.00
59877;BME280;45749;51.140;17.184;2023-02-16T00:18:49;100973.78;;;-0.29;87.11
59877;BME280;45749;51.140;17.184;2023-02-16T00:21:14;100975.53;;;-0.31;86.88
59877;BME280;45749;51.140;17.184;2023-02-16T00:23:40;100989.41;;;-0.34;87.01
59877;BME280;45749;51.140;17.184;2023-02-16T00:26:08;100982.53;;;-0.35;87.07
59877;BME280;45749;51.140;17.184;2023-02-16T00:28:35;100980.81;;;-0.36;87.16
59877;BME280;45749;51.140;17.184;2023-02-16T00:31:00;100987.72;;;-0.36;87.37
59877;BME280;45749;51.140;17.184;2023-02-16T00:33:25;100982.53;;;-0.35;86.96
59877;BME280;45749;51.140;17.184;2023-02-16T00:35:50;100975.50;;;-0.30;86.81
59877;BME280;45749;51.140;17.184;2023-02-16T00:38:16;100975.50;;;-0.28;86.76
59877;BME280;45749;51.140;17.184;2023-02-16T00:40:41;100976.28;;;-0.25;86.81
59877;BME280;45749;51.140;17.184;2023-02-16T00:43:06;100969.41;;;-0.26;86.70
59877;BME280;45749;51.140;17.184;2023-02-16T00:45:32;100971.06;;;-0.21;86.48
59877;BME280;45749;51.140;17.184;2023-02-16T00:48:00;100974.53;;;-0.22;86.38
59877;BME280;45749;51.140;17.184;2023-02-16T00:50:26;100985.81;;;-0.27;86.25
59877;BME280;45749;51.140;17.184;2023-02-16T00:52:52;100978.13;;;-0.31;86.36
59877;BME280;45749;51.140;17.184;2023-02-16T00:55:18;100982.56;;;-0.38;86.72
59877;BME280;45749;51.140;17.184;2023-02-16T00:57:49;100979.19;;;-0.41;86.80
59877;BME280;45749;51.140;17.184;2023-02-16T01:02:42;100971.44;;;-0.44;86.66
59877;BME280;45749;51.140;17.184;2023-02-16T01:05:07;100978.41;;;-0.47;86.68
59877;BME280;45749;51.140;17.184;2023-02-16T01:07:32;100968.06;;;-0.48;86.51
59877;BME280;45749;51.140;17.184;2023-02-16T01:10:17;100969.81;;;-0.50;86.44
59877;BME280;45749;51.140;17.184;2023-02-16T01:13:01;100968.16;;;-0.54;86.56
59877;BME280;45749;51.140;17.184;2023-02-16T01:15:27;100969.00;;;-0.54;86.51
59877;BME280;45749;51.140;17.184;2023-02-16T01:17:52;100963.88;;;-0.57;86.66
59877;BME280;45749;51.140;17.184;2023-02-16T01:20:19;100966.56;;;-0.63;86.46
59877;BME280;45749;51.140;17.184;2023-02-16T01:22:44;100962.31;;;-0.67;86.56
59877;BME280;45749;51.140;17.184;2023-02-16T01:25:10;100962.34;;;-0.68;86.80
59877;BME280;45749;51.140;17.184;2023-02-16T01:27:36;100958.06;;;-0.71;86.75
59877;BME280;45749;51.140;17.184;2023-02-16T01:30:01;100965.84;;;-0.71;86.55
59877;BME280;45749;51.140;17.184;2023-02-16T01:32:27;100960.66;;;-0.71;86.70
59877;BME280;45749;51.140;17.184;2023-02-16T01:34:52;100970.13;;;-0.70;86.29
59877;BME280;45749;51.140;17.184;2023-02-16T01:37:17;100962.41;;;-0.73;86.39
59877;BME280;45749;51.140;17.184;2023-02-16T01:39:43;100964.19;;;-0.75;86.57
59877;BME280;45749;51.140;17.184;2023-02-16T01:44:59;100956.44;;;-0.77;86.41
59877;BME280;45749;51.140;17.184;2023-02-16T01:48:11;100949.50;;;-0.76;86.27
59877;BME280;45749;51.140;17.184;2023-02-16T01:50:17;100941.78;;;-0.79;86.24
59877;BME280;45749;51.140;17.184;2023-02-16T01:52:54;100941.75;;;-0.78;86.64
59877;BME280;45749;51.140;17.184;2023-02-16T01:55:25;100940.91;;;-0.78;86.35
59877;BME280;45749;51.140;17.184;2023-02-16T01:57:57;100929.75;;;-0.82;86.45
59877;BME280;45749;51.140;17.184;2023-02-16T02:02:53;100927.19;;;-0.85;86.38
59877;BME280;45749;51.140;17.184;2023-02-16T02:05:39;100917.75;;;-0.89;86.41
59877;BME280;45749;51.140;17.184;2023-02-16T02:08:09;100923.81;;;-0.88;86.77
59877;BME280;45749;51.140;17.184;2023-02-16T02:10:40;100919.44;;;-0.86;86.86
59877;BME280;45749;51.140;17.184;2023-02-16T02:13:28;100922.88;;;-0.86;86.84
59877;BME280;45749;51.140;17.184;2023-02-16T02:15:57;100914.28;;;-0.88;86.73
59877;BME280;45749;51.140;17.184;2023-02-16T02:18:23;100912.59;;;-0.90;86.56
59877;BME280;45749;51.140;17.184;2023-02-16T02:20:51;100905.75;;;-0.95;86.54
59877;BME280;45749;51.140;17.184;2023-02-16T02:37:05;100901.66;;;-1.09;87.03
59877;BME280;45749;51.140;17.184;2023-02-16T02:42:09;100902.50;;;-1.09;87.40
59877;BME280;45749;51.140;17.184;2023-02-16T02:44:39;100909.44;;;-1.08;87.57
59877;BME280;45749;51.140;17.184;2023-02-16T02:47:06;100911.13;;;-1.05;87.60
59877;BME280;45749;51.140;17.184;2023-02-16T02:49:31;100902.41;;;-1.03;87.58
59877;BME280;45749;51.140;17.184;2023-02-16T02:51:57;100906.75;;;-1.03;87.26
59877;BME280;45749;51.140;17.184;2023-02-16T02:54:32;100910.25;;;-1.06;87.45
59877;BME280;45749;51.140;17.184;2023-02-16T02:57:18;100910.25;;;-1.06;87.37
59877;BME280;45749;51.140;17.184;2023-02-16T03:02:48;100909.47;;;-1.11;87.36
59877;BME280;45749;51.140;17.184;2023-02-16T03:05:15;100899.97;;;-1.12;87.39
59877;BME280;45749;51.140;17.184;2023-02-16T03:07:42;100901.75;;;-1.14;87.38
59877;BME280;45749;51.140;17.184;2023-02-16T03:13:26;100889.66;;;-1.13;87.31
59877;BME280;45749;51.140;17.184;2023-02-16T03:15:53;100892.22;;;-1.13;87.32
59877;BME280;45749;51.140;17.184;2023-02-16T03:18:20;100902.63;;;-1.16;87.27
59877;BME280;45749;51.140;17.184;2023-02-16T03:21:06;100895.81;;;-1.22;87.38
59877;BME280;45749;51.140;17.184;2023-02-16T03:23:50;100902.75;;;-1.24;87.67
59877;BME280;45749;51.140;17.184;2023-02-16T03:26:35;100901.03;;;-1.25;87.58
59877;BME280;45749;51.140;17.184;2023-02-16T03:29:20;100907.13;;;-1.28;88.08
59877;BME280;45749;51.140;17.184;2023-02-16T03:31:50;100899.41;;;-1.31;87.69
59877;BME280;45749;51.140;17.184;2023-02-16T03:34:16;100889.06;;;-1.32;87.79
59877;BME280;45749;51.140;17.184;2023-02-16T03:36:43;100889.97;;;-1.35;87.89
59877;BME280;45749;51.140;17.184;2023-02-16T03:39:10;100897.78;;;-1.38;87.82
59877;BME280;45749;51.140;17.184;2023-02-16T03:41:41;100889.16;;;-1.38;87.71
59877;BME280;45749;51.140;17.184;2023-02-16T03:44:06;100884.84;;;-1.39;87.75
59877;BME280;45749;51.140;17.184;2023-02-16T03:46:32;100896.09;;;-1.40;87.81
59877;BME280;45749;51.140;17.184;2023-02-16T03:48:57;100894.38;;;-1.42;87.67
59877;BME280;45749;51.140;17.184;2023-02-16T03:51:23;100896.09;;;-1.40;87.85
59877;BME280;45749;51.140;17.184;2023-02-16T03:53:48;100901.28;;;-1.40;87.71
59877;BME280;45749;51.140;17.184;2023-02-16T03:56:14;100898.69;;;-1.42;87.58
59877;BME280;45749;51.140;17.184;2023-02-16T03:58:39;100891.00;;;-1.47;87.73
59877;BME280;45749;51.140;17.184;2023-02-16T04:01:04;100893.59;;;-1.47;87.62
59877;BME280;45749;51.140;17.184;2023-02-16T04:03:30;100895.28;;;-1.46;87.47
59877;BME280;45749;51.140;17.184;2023-02-16T04:05:55;100889.31;;;-1.48;87.38
59877;BME280;45749;51.140;17.184;2023-02-16T04:08:20;100897.88;;;-1.46;87.56
59877;BME280;45749;51.140;17.184;2023-02-16T04:10:46;100882.34;;;-1.44;87.57
59877;BME280;45749;51.140;17.184;2023-02-16T04:13:11;100886.69;;;-1.46;87.46
59877;BME280;45749;51.140;17.184;2023-02-16T04:15:36;100890.16;;;-1.49;87.63
59877;BME280;45749;51.140;17.184;2023-02-16T04:18:02;100891.91;;;-1.49;87.49
59877;BME280;45749;51.140;17.184;2023-02-16T04:20:28;100892.78;;;-1.52;87.43
59877;BME280;45749;51.140;17.184;2023-02-16T04:22:53;100892.78;;;-1.52;87.85
59877;BME280;45749;51.140;17.184;2023-02-16T04:25:19;100891.91;;;-1.49;87.41
59877;BME280;45749;51.140;17.184;2023-02-16T04:27:44;100891.09;;;-1.53;87.70
59877;BME280;45749;51.140;17.184;2023-02-16T04:30:11;100897.16;;;-1.55;87.88
59877;BME280;45749;51.140;17.184;2023-02-16T04:32:37;100896.38;;;-1.62;87.81
59877;BME280;45749;51.140;17.184;2023-02-16T04:35:03;100892.97;;;-1.64;87.59
59877;BME280;45749;51.140;17.184;2023-02-16T04:37:28;100895.56;;;-1.64;87.51
59877;BME280;45749;51.140;17.184;2023-02-16T04:39:54;100885.22;;;-1.66;87.64
59877;BME280;45749;51.140;17.184;2023-02-16T04:42:19;100892.97;;;-1.64;87.84
59877;BME280;45749;51.140;17.184;2023-02-16T04:44:44;100888.69;;;-1.67;87.67
59877;BME280;45749;51.140;17.184;2023-02-16T04:47:10;100887.84;;;-1.67;87.95
59877;BME280;45749;51.140;17.184;2023-02-16T04:49:35;100889.59;;;-1.69;87.97
59877;BME280;45749;51.140;17.184;2023-02-16T04:52:00;100894.78;;;-1.72;87.85
59877;BME280;45749;51.140;17.184;2023-02-16T04:54:28;100891.38;;;-1.74;88.02
59877;BME280;45749;51.140;17.184;2023-02-16T04:56:53;100887.06;;;-1.75;87.85
59877;BME280;45749;51.140;17.184;2023-02-16T04:59:18;100891.41;;;-1.76;88.16
59877;BME280;45749;51.140;17.184;2023-02-16T05:01:44;100888.84;;;-1.77;88.04
59877;BME280;45749;51.140;17.184;2023-02-16T05:04:09;100887.91;;;-1.73;88.09
59877;BME280;45749;51.140;17.184;2023-02-16T05:06:35;100890.47;;;-1.70;87.93
59877;BME280;45749;51.140;17.184;2023-02-16T05:09:00;100878.34;;;-1.68;87.41
59877;BME280;45749;51.140;17.184;2023-02-16T05:11:26;100873.19;;;-1.70;87.49
59877;BME280;45749;51.140;17.184;2023-02-16T05:14:17;100871.50;;;-1.72;87.48
59877;BME280;45749;51.140;17.184;2023-02-16T05:17:01;100867.22;;;-1.73;87.81
59877;BME280;45749;51.140;17.184;2023-02-16T05:19:27;100871.53;;;-1.75;87.73
59877;BME280;45749;51.140;17.184;2023-02-16T05:21:52;100869.00;;;-1.77;87.82
59877;BME280;45749;51.140;17.184;2023-02-16T05:24:17;100864.66;;;-1.78;87.85
59877;BME280;45749;51.140;17.184;2023-02-16T05:26:42;100865.59;;;-1.80;87.99
59877;BME280;45749;51.140;17.184;2023-02-16T05:29:08;100859.53;;;-1.79;87.94
59877;BME280;45749;51.140;17.184;2023-02-16T05:31:33;100868.09;;;-1.74;87.98
59877;BME280;45749;51.140;17.184;2023-02-16T05:33:58;100865.44;;;-1.71;88.13
59877;BME280;45749;51.140;17.184;2023-02-16T05:36:24;100870.59;;;-1.68;88.13
59877;BME280;45749;51.140;17.184;2023-02-16T05:38:49;100872.34;;;-1.70;88.17
59877;BME280;45749;51.140;17.184;2023-02-16T05:41:15;100881.09;;;-1.77;88.20
59877;BME280;45749;51.140;17.184;2023-02-16T05:43:48;100884.56;;;-1.81;88.55
59877;BME280;45749;51.140;17.184;2023-02-16T05:46:13;100883.69;;;-1.82;88.53
59877;BME280;45749;51.140;17.184;2023-02-16T05:48:39;100881.97;;;-1.81;88.48
59877;BME280;45749;51.140;17.184;2023-02-16T05:51:04;100888.91;;;-1.83;88.22
59877;BME280;45749;51.140;17.184;2023-02-16T05:53:29;100889.78;;;-1.84;88.54
59877;BME280;45749;51.140;17.184;2023-02-16T05:55:54;100879.47;;;-1.86;88.44
59877;BME280;45749;51.140;17.184;2023-02-16T05:58:20;100889.84;;;-1.87;88.45
59877;BME280;45749;51.140;17.184;2023-02-16T06:00:45;100886.38;;;-1.86;88.59
59877;BME280;45749;51.140;17.184;2023-02-16T06:03:10;100888.03;;;-1.82;88.35
59877;BME280;45749;51.140;17.184;2023-02-16T06:05:36;100888.03;;;-1.82;88.31
59877;BME280;45749;51.140;17.184;2023-02-16T06:08:01;100896.63;;;-1.80;88.19
59877;BME280;45749;51.140;17.184;2023-02-16T06:10:26;100897.50;;;-1.81;88.30
59877;BME280;45749;51.140;17.184;2023-02-16T06:12:52;100894.94;;;-1.83;88.07
59877;BME280;45749;51.140;17.184;2023-02-16T06:15:17;100903.56;;;-1.82;88.49
59877;BME280;45749;51.140;17.184;2023-02-16T06:17:42;100913.91;;;-1.82;88.61
59877;BME280;45749;51.140;17.184;2023-02-16T06:20:08;100917.41;;;-1.86;88.37
59877;BME280;45749;51.140;17.184;2023-02-16T06:22:34;100910.56;;;-1.91;88.76
59877;BME280;45749;51.140;17.184;2023-02-16T06:24:59;100907.13;;;-1.93;88.88
59877;BME280;45749;51.140;17.184;2023-02-16T06:27:24;100907.13;;;-1.93;88.92
59877;BME280;45749;51.140;17.184;2023-02-16T06:29:52;100906.25;;;-1.90;89.10
59877;BME280;45749;51.140;17.184;2023-02-16T06:32:17;100901.88;;;-1.86;89.10
59877;BME280;45749;51.140;17.184;2023-02-16T06:34:43;100900.97;;;-1.82;89.05
59877;BME280;45749;51.140;17.184;2023-02-16T06:37:08;100909.56;;;-1.82;89.12
59877;BME280;45749;51.140;17.184;2023-02-16T06:39:33;100903.56;;;-1.82;89.17
59877;BME280;45749;51.140;17.184;2023-02-16T06:41:59;100905.22;;;-1.78;89.28
59877;BME280;45749;51.140;17.184;2023-02-16T06:44:24;100905.19;;;-1.75;89.07
59877;BME280;45749;51.140;17.184;2023-02-16T06:46:49;100902.59;;;-1.75;89.21
59877;BME280;45749;51.140;17.184;2023-02-16T06:49:15;100900.88;;;-1.76;89.29
59877;BME280;45749;51.140;17.184;2023-02-16T06:51:44;100906.06;;;-1.76;89.25
59877;BME280;45749;51.140;17.184;2023-02-16T06:54:10;100894.78;;;-1.72;89.47
59877;BME280;45749;51.140;17.184;2023-02-16T06:56:35;100898.22;;;-1.70;89.42
59877;BME280;45749;51.140;17.184;2023-02-16T06:59:00;100911.13;;;-1.67;89.26
59877;BME280;45749;51.140;17.184;2023-02-16T07:01:26;100899.00;;;-1.65;89.58
59877;BME280;45749;51.140;17.184;2023-02-16T07:03:52;100907.53;;;-1.58;89.82
59877;BME280;45749;51.140;17.184;2023-02-16T07:06:18;100903.25;;;-1.58;89.63
59877;BME280;45749;51.140;17.184;2023-02-16T07:08:43;100907.50;;;-1.54;89.73
59877;BME280;45749;51.140;17.184;2023-02-16T07:11:09;100907.47;;;-1.52;89.70
59877;BME280;45749;51.140;17.184;2023-02-16T07:13:34;100907.44;;;-1.49;90.07
59877;BME280;45749;51.140;17.184;2023-02-16T07:16:03;100904.78;;;-1.46;90.39
59877;BME280;45749;51.140;17.184;2023-02-16T07:18:29;100905.66;;;-1.44;90.32
59877;BME280;45749;51.140;17.184;2023-02-16T07:20:55;100901.31;;;-1.44;90.08
59877;BME280;45749;51.140;17.184;2023-02-16T07:23:20;100910.78;;;-1.41;90.44
59877;BME280;45749;51.140;17.184;2023-02-16T07:25:45;100913.31;;;-1.38;90.36
59877;BME280;45749;51.140;17.184;2023-02-16T07:28:11;100908.13;;;-1.35;90.69
59877;BME280;45749;51.140;17.184;2023-02-16T07:30:36;100905.44;;;-1.30;90.75
59877;BME280;45749;51.140;17.184;2023-02-16T07:33:01;100899.38;;;-1.28;90.83
59877;BME280;45749;51.140;17.184;2023-02-16T07:35:27;100899.31;;;-1.25;90.56
59877;BME280;45749;51.140;17.184;2023-02-16T07:37:52;100901.00;;;-1.22;90.76
59877;BME280;45749;51.140;17.184;2023-02-16T07:40:18;100900.94;;;-1.19;90.83
59877;BME280;45749;51.140;17.184;2023-02-16T07:42:43;100900.91;;;-1.16;91.06
59877;BME280;45749;51.140;17.184;2023-02-16T07:45:08;100902.63;;;-1.15;90.99
59877;BME280;45749;51.140;17.184;2023-02-16T07:47:33;100898.25;;;-1.11;91.39
59877;BME280;45749;51.140;17.184;2023-02-16T07:49:59;100900.75;;;-1.07;91.39
59877;BME280;45749;51.140;17.184;2023-02-16T07:52:24;100896.44;;;-1.06;91.61
59877;BME280;45749;51.140;17.184;2023-02-16T07:54:55;100902.41;;;-1.03;91.92
59877;BME280;45749;51.140;17.184;2023-02-16T07:57:20;100898.03;;;-0.99;92.10
59877;BME280;45749;51.140;17.184;2023-02-16T07:59:46;100897.16;;;-0.97;92.08
59877;BME280;45749;51.140;17.184;2023-02-16T08:02:15;100890.22;;;-0.95;92.47
59877;BME280;45749;51.140;17.184;2023-02-16T08:04:40;100889.28;;;-0.90;92.82
59877;BME280;45749;51.140;17.184;2023-02-16T08:07:06;100886.59;;;-0.86;93.11
59877;BME280;45749;51.140;17.184;2023-02-16T08:09:31;100892.53;;;-0.79;92.92
59877;BME280;45749;51.140;17.184;2023-02-16T08:11:58;100895.00;;;-0.72;93.21
59877;BME280;45749;51.140;17.184;2023-02-16T08:14:23;100890.59;;;-0.65;93.21
59877;BME280;45749;51.140;17.184;2023-02-16T08:16:48;100886.16;;;-0.58;93.84
59877;BME280;45749;51.140;17.184;2023-02-16T08:19:13;100883.44;;;-0.52;93.67
59877;BME280;45749;51.140;17.184;2023-02-16T08:21:39;100884.19;;;-0.45;93.92
59877;BME280;45749;51.140;17.184;2023-02-16T08:24:05;100878.91;;;-0.39;94.17
59877;BME280;45749;51.140;17.184;2023-02-16T08:26:37;100880.47;;;-0.32;94.47
59877;BME280;45749;51.140;17.184;2023-02-16T08:29:04;100881.19;;;-0.24;94.17
59877;BME280;45749;51.140;17.184;2023-02-16T08:31:30;100876.72;;;-0.16;94.44
59877;BME280;45749;51.140;17.184;2023-02-16T08:33:57;100873.94;;;-0.08;94.42
59877;BME280;45749;51.140;17.184;2023-02-16T08:36:27;100866.84;;;0.02;94.49
59877;BME280;45749;51.140;17.184;2023-02-16T08:38:57;100870.16;;;0.08;94.83
59877;BME280;45749;51.140;17.184;2023-02-16T08:41:23;100868.22;;;0.18;94.96
59877;BME280;45749;51.140;17.184;2023-02-16T08:43:49;100877.53;;;0.28;95.15
59877;BME280;45749;51.140;17.184;2023-02-16T08:46:15;100877.34;;;0.37;94.78
59877;BME280;45749;51.140;17.184;2023-02-16T08:48:41;100864.16;;;0.46;95.04
59877;BME280;45749;51.140;17.184;2023-02-16T08:51:12;100868.25;;;0.57;95.25
59877;BME280;45749;51.140;17.184;2023-02-16T08:53:37;100867.16;;;0.67;95.39
59877;BME280;45749;51.140;17.184;2023-02-16T08:56:02;100870.38;;;0.77;95.30
59877;BME280;45749;51.140;17.184;2023-02-16T08:58:28;100870.19;;;0.86;95.77
59877;BME280;45749;51.140;17.184;2023-02-16T09:00:54;100872.44;;;0.98;96.00
59877;BME280;45749;51.140;17.184;2023-02-16T09:03:20;100870.41;;;1.11;96.33
59877;BME280;45749;51.140;17.184;2023-02-16T09:05:46;100875.25;;;1.25;96.63
59877;BME280;45749;51.140;17.184;2023-02-16T09:08:11;100885.28;;;1.40;97.08
59877;BME280;45749;51.140;17.184;2023-02-16T09:10:37;100873.63;;;1.55;96.94
59877;BME280;45749;51.140;17.184;2023-02-16T09:13:02;100880.16;;;1.70;97.28
59877;BME280;45749;51.140;17.184;2023-02-16T09:15:28;100871.94;;;1.85;97.28
59877;BME280;45749;51.140;17.184;2023-02-16T09:17:54;100880.19;;;2.01;96.83
59877;BME280;45749;51.140;17.184;2023-02-16T09:20:19;100874.56;;;2.15;96.46
59877;BME280;45749;51.140;17.184;2023-02-16T09:22:45;100874.16;;;2.28;96.60
59877;BME280;45749;51.140;17.184;2023-02-16T09:25:11;100876.31;;;2.44;96.49
59877;BME280;45749;51.140;17.184;2023-02-16T09:27:36;100876.81;;;2.55;96.22
59877;BME280;45749;51.140;17.184;2023-02-16T09:30:02;100870.28;;;2.70;96.32
59877;BME280;45749;51.140;17.184;2023-02-16T09:32:30;100872.41;;;2.85;95.57
59877;BME280;45749;51.140;17.184;2023-02-16T09:34:56;100866.75;;;2.99;95.12
59877;BME280;45749;51.140;17.184;2023-02-16T09:37:21;100868.03;;;3.12;95.20
59877;BME280;45749;51.140;17.184;2023-02-16T09:39:46;100864.13;;;3.25;95.58
59877;BME280;45749;51.140;17.184;2023-02-16T09:45:07;100853.44;;;3.58;94.99
59877;BME280;45749;51.140;17.184;2023-02-16T09:47:39;100849.16;;;3.81;95.38
59877;BME280;45749;51.140;17.184;2023-02-16T09:52:59;100852.22;;;4.15;94.68
59877;BME280;45749;51.140;17.184;2023-02-16T09:55:30;100857.72;;;4.31;94.33
59877;BME280;45749;51.140;17.184;2023-02-16T09:58:21;100851.16;;;4.43;94.01
59877;BME280;45749;51.140;17.184;2023-02-16T10:03:27;100862.28;;;4.70;91.71
59877;BME280;45749;51.140;17.184;2023-02-16T10:08:41;100850.66;;;4.99;89.64
59877;BME280;45749;51.140;17.184;2023-02-16T10:11:42;100845.72;;;5.13;88.92
59877;BME280;45749;51.140;17.184;2023-02-16T10:14:06;100844.44;;;5.24;88.46
59877;BME280;45749;51.140;17.184;2023-02-16T10:16:37;100843.97;;;5.34;89.66
59877;BME280;45749;51.140;17.184;2023-02-16T10:19:11;100850.38;;;5.48;88.90
59877;BME280;45749;51.140;17.184;2023-02-16T10:21:41;100846.38;;;5.59;88.40
59877;BME280;45749;51.140;17.184;2023-02-16T10:24:10;100850.16;;;5.73;88.29
59877;BME280;45749;51.140;17.184;2023-02-16T10:26:38;100857.28;;;5.90;87.77
59877;BME280;45749;51.140;17.184;2023-02-16T10:29:27;100851.50;;;6.02;87.84
59877;BME280;45749;51.140;17.184;2023-02-16T10:32:04;100857.97;;;6.14;85.77
59877;BME280;45749;51.140;17.184;2023-02-16T10:37:19;100856.97;;;6.35;85.75
59877;BME280;45749;51.140;17.184;2023-02-16T10:47:39;100855.38;;;6.69;84.41
59877;BME280;45749;51.140;17.184;2023-02-16T10:50:05;100847.22;;;6.75;83.62
59877;BME280;45749;51.140;17.184;2023-02-16T10:52:34;100843.50;;;6.79;83.09
59877;BME280;45749;51.140;17.184;2023-02-16T10:55:01;100834.66;;;6.81;83.11
59877;BME280;45749;51.140;17.184;2023-02-16T10:57:28;100838.81;;;6.86;83.19
59877;BME280;45749;51.140;17.184;2023-02-16T10:59:56;100835.97;;;6.90;82.54
59877;BME280;45749;51.140;17.184;2023-02-16T11:02:29;100839.97;;;6.97;82.28
59877;BME280;45749;51.140;17.184;2023-02-16T11:04:58;100832.88;;;6.99;82.44
59877;BME280;45749;51.140;17.184;2023-02-16T11:07:26;100835.34;;;7.02;81.28
59877;BME280;45749;51.140;17.184;2023-02-16T11:09:53;100832.50;;;7.07;82.38
59877;BME280;45749;51.140;17.184;2023-02-16T11:12:32;100834.66;;;7.16;81.50
59877;BME280;45749;51.140;17.184;2023-02-16T11:18:26;100835.91;;;7.26;80.81
59877;BME280;45749;51.140;17.184;2023-02-16T11:26:00;100840.09;;;7.31;80.72
59877;BME280;45749;51.140;17.184;2023-02-16T11:30:57;100834.59;;;7.35;79.85
59877;BME280;45749;51.140;17.184;2023-02-16T11:33:24;100834.28;;;7.41;80.42
59877;BME280;45749;51.140;17.184;2023-02-16T11:35:53;100834.72;;;7.49;79.24
59877;BME280;45749;51.140;17.184;2023-02-16T11:38:26;100837.88;;;7.56;78.93
59877;BME280;45749;51.140;17.184;2023-02-16T11:40:51;100839.34;;;7.62;78.84
59877;BME280;45749;51.140;17.184;2023-02-16T11:43:17;100839.09;;;7.66;79.11
59877;BME280;45749;51.140;17.184;2023-02-16T11:45:43;100828.44;;;7.69;79.26
59877;BME280;45749;51.140;17.184;2023-02-16T11:48:12;100832.50;;;7.75;79.58
59877;BME280;45749;51.140;17.184;2023-02-16T11:50:38;100831.41;;;7.79;79.63
59877;BME280;45749;51.140;17.184;2023-02-16T11:55:40;100837.03;;;7.89;78.47
59877;BME280;45749;51.140;17.184;2023-02-16T11:58:13;100819.47;;;7.89;79.23
59877;BME280;45749;51.140;17.184;2023-02-16T12:00:39;100827.97;;;7.94;78.96
59877;BME280;45749;51.140;17.184;2023-02-16T12:24:13;100786.63;;;8.14;78.02
59877;BME280;45749;51.140;17.184;2023-02-16T12:27:05;100797.72;;;8.19;77.80
59877;BME280;45749;51.140;17.184;2023-02-16T12:29:35;100795.53;;;8.27;78.56
59877;BME280;45749;51.140;17.184;2023-02-16T12:38:06;100796.03;;;8.34;77.23
59877;BME280;45749;51.140;17.184;2023-02-16T12:45:05;100796.88;;;8.34;77.07
59877;BME280;45749;51.140;17.184;2023-02-16T12:47:38;100794.41;;;8.31;76.52
59877;BME280;45749;51.140;17.184;2023-02-16T12:50:06;100786.69;;;8.28;76.44
59877;BME280;45749;51.140;17.184;2023-02-16T12:52:42;100791.13;;;8.28;77.64
59877;BME280;45749;51.140;17.184;2023-02-16T12:55:20;100785.84;;;8.28;77.36
59877;BME280;45749;51.140;17.184;2023-02-16T12:58:32;100775.44;;;8.26;76.86
59877;BME280;45749;51.140;17.184;2023-02-16T13:00:44;100780.88;;;8.23;76.84
59877;BME280;45749;51.140;17.184;2023-02-16T13:05:43;100781.88;;;8.20;77.25
59877;BME280;45749;51.140;17.184;2023-02-16T13:08:14;100773.91;;;8.22;77.63
59877;BME280;45749;51.140;17.184;2023-02-16T13:13:11;100770.19;;;8.26;77.64
59877;BME280;45749;51.140;17.184;2023-02-16T13:15:45;100771.78;;;8.29;77.21
59877;BME280;45749;51.140;17.184;2023-02-16T13:20:41;100759.22;;;8.34;77.39
59877;BME280;45749;51.140;17.184;2023-02-16T13:23:19;100759.91;;;8.37;77.21
59877;BME280;45749;51.140;17.184;2023-02-16T13:33:50;100743.47;;;8.50;76.50
59877;BME280;45749;51.140;17.184;2023-02-16T13:44:38;100726.22;;;8.60;76.68
59877;BME280;45749;51.140;17.184;2023-02-16T13:47:04;100728.56;;;8.64;76.33
59877;BME280;45749;51.140;17.184;2023-02-16T13:49:32;100734.31;;;8.71;76.24
59877;BME280;45749;51.140;17.184;2023-02-16T13:52:00;100727.00;;;8.76;76.16
59877;BME280;45749;51.140;17.184;2023-02-16T13:54:27;100732.09;;;8.79;75.28
59877;BME280;45749;51.140;17.184;2023-02-16T13:56:53;100731.25;;;8.79;75.27
59877;BME280;45749;51.140;17.184;2023-02-16T14:01:45;100727.56;;;8.81;74.78
59877;BME280;45749;51.140;17.184;2023-02-16T14:06:45;100732.59;;;8.86;75.20
59877;BME280;45749;51.140;17.184;2023-02-16T14:16:51;100717.94;;;8.96;74.54
59877;BME280;45749;51.140;17.184;2023-02-16T14:19:20;100715.97;;;9.00;74.80
59877;BME280;45749;51.140;17.184;2023-02-16T14:21:48;100713.16;;;9.03;74.77
59877;BME280;45749;51.140;17.184;2023-02-16T14:24:33;100717.41;;;9.05;73.62
59877;BME280;45749;51.140;17.184;2023-02-16T14:27:00;100721.78;;;9.05;74.08
59877;BME280;45749;51.140;17.184;2023-02-16T14:29:37;100713.16;;;9.03;74.30
59877;BME280;45749;51.140;17.184;2023-02-16T14:34:35;100712.31;;;9.02;73.21
59877;BME280;45749;51.140;17.184;2023-02-16T14:39:42;100708.56;;;9.06;74.25
59877;BME280;45749;51.140;17.184;2023-02-16T14:42:11;100703.94;;;9.10;74.11
59877;BME280;45749;51.140;17.184;2023-02-16T14:55:24;100698.22;;;9.32;74.44
59877;BME280;45749;51.140;17.184;2023-02-16T14:57:57;100693.81;;;9.32;74.48
59877;BME280;45749;51.140;17.184;2023-02-16T15:03:00;100694.00;;;9.29;74.42
59877;BME280;45749;51.140;17.184;2023-02-16T15:05:33;100693.16;;;9.29;74.50
59877;BME280;45749;51.140;17.184;2023-02-16T15:08:15;100691.53;;;9.26;74.27
59877;BME280;45749;51.140;17.184;2023-02-16T15:10:44;100689.09;;;9.23;74.10
59877;BME280;45749;51.140;17.184;2023-02-16T15:15:45;100694.66;;;9.19;74.44
59877;BME280;45749;51.140;17.184;2023-02-16T15:18:20;100693.03;;;9.16;74.54
59877;BME280;45749;51.140;17.184;2023-02-16T15:20:47;100687.19;;;9.11;74.37
59877;BME280;45749;51.140;17.184;2023-02-16T15:23:23;100689.19;;;9.07;74.33